createdAt,value
2019-04-25T00:01:25.601Z,99.90
2019-04-25T00:03:54.304Z,99.90
2019-04-25T00:06:24.213Z,99.90
2019-04-25T00:08:53.479Z,99.90
2019-04-25T00:11:22.295Z,99.90
2019-04-25T00:13:51.598Z,99.90
2019-04-25T00:16:22.309Z,99.90
2019-04-25T00:18:51.709Z,99.90
2019-04-25T00:21:22.045Z,99.90
2019-04-25T00:23:52.382Z,99.90
2019-04-25T00:26:22.447Z,99.90
2019-04-25T00:28:52.304Z,99.90
2019-04-25T00:31:22.052Z,99.90
2019-04-25T00:33:52.490Z,99.90
2019-04-25T00:36:21.773Z,99.90
2019-04-25T00:38:52.000Z,99.90
2019-04-25T00:41:21.347Z,99.90
2019-04-25T00:43:51.504Z,99.90
2019-04-25T00:46:20.064Z,99.90
2019-04-25T00:48:48.485Z,99.90
2019-04-25T00:51:16.904Z,99.90
2019-04-25T00:53:46.110Z,99.90
2019-04-25T00:56:14.553Z,99.90
2019-04-25T00:58:45.286Z,99.90
2019-04-25T01:01:21.864Z,99.90
2019-04-25T01:03:51.811Z,99.90
2019-04-25T01:06:22.039Z,99.90
2019-04-25T01:08:53.243Z,99.90
2019-04-25T01:11:21.507Z,99.90
2019-04-25T01:13:50.438Z,99.90
2019-04-25T01:16:21.943Z,99.90
2019-04-25T01:18:50.890Z,99.90
2019-04-25T01:21:19.409Z,99.90
2019-04-25T01:23:47.847Z,99.90
2019-04-25T01:26:16.347Z,99.90
2019-04-25T01:28:46.050Z,99.90
2019-04-25T01:31:16.671Z,99.90
2019-04-25T01:33:45.101Z,99.90
2019-04-25T01:36:24.109Z,99.90
2019-04-25T01:38:58.836Z,99.90
2019-04-25T01:41:29.094Z,99.90
2019-04-25T01:43:59.722Z,99.90
2019-04-25T01:46:28.821Z,99.90
2019-04-25T01:48:57.269Z,99.90
2019-04-25T01:51:25.697Z,99.90
2019-04-25T01:53:54.850Z,99.90
2019-04-25T01:56:24.775Z,99.90
2019-04-25T01:58:54.725Z,99.90
2019-04-25T02:01:24.136Z,99.90
2019-04-25T02:03:54.304Z,99.90
2019-04-25T02:06:23.148Z,99.90
2019-04-25T02:08:54.963Z,99.90
2019-04-25T02:11:43.896Z,99.90
2019-04-25T02:14:13.716Z,99.90
2019-04-25T02:16:43.829Z,99.90
2019-04-25T02:19:12.524Z,99.90
2019-04-25T02:21:40.933Z,99.90
2019-04-25T02:24:09.358Z,99.90
2019-04-25T02:26:37.802Z,99.90
2019-04-25T02:29:06.238Z,99.90
2019-04-25T02:31:35.000Z,99.90
2019-04-25T02:34:08.147Z,99.90
2019-04-25T02:36:34.699Z,99.90
2019-04-25T02:39:08.890Z,99.90
2019-04-25T02:41:36.746Z,99.90
2019-04-25T02:44:09.418Z,99.90
2019-04-25T02:46:37.383Z,99.90
2019-04-25T02:49:29.912Z,99.90
2019-04-25T02:51:47.949Z,99.90
2019-04-25T02:54:16.385Z,99.90
2019-04-25T02:56:46.657Z,99.90
2019-04-25T02:59:15.156Z,99.90
2019-04-25T03:01:44.502Z,99.90
2019-04-25T03:04:14.384Z,99.90
2019-04-25T03:06:45.282Z,99.90
2019-04-25T03:09:15.392Z,99.90
2019-04-25T03:11:45.137Z,99.90
2019-04-25T03:14:14.688Z,99.90
2019-04-25T03:16:44.825Z,99.90
2019-04-25T03:19:34.266Z,99.90
2019-04-25T03:22:09.191Z,99.90
2019-04-25T03:24:35.213Z,99.90
2019-04-25T03:27:05.222Z,99.90
2019-04-25T03:29:34.267Z,99.90
2019-04-25T03:32:07.267Z,99.90
2019-04-25T03:34:35.125Z,99.90
2019-04-25T03:37:05.249Z,99.90
2019-04-25T03:39:33.582Z,99.90
2019-04-25T03:42:02.260Z,99.90
2019-04-25T03:44:31.224Z,99.90
2019-04-25T03:46:59.661Z,99.90
2019-04-25T03:49:28.116Z,99.90
2019-04-25T03:51:56.788Z,99.90
2019-04-25T03:54:25.218Z,99.90
2019-04-25T03:56:56.041Z,99.90
2019-04-25T03:59:23.808Z,99.90
2019-04-25T04:01:53.743Z,99.90
2019-04-25T04:04:23.717Z,99.90
2019-04-25T04:06:53.746Z,99.90
2019-04-25T04:09:23.870Z,99.90
2019-04-25T04:11:53.445Z,99.90
2019-04-25T04:14:23.833Z,99.90
2019-04-25T04:17:10.875Z,99.90
2019-04-25T04:19:46.821Z,99.90
2019-04-25T04:22:16.909Z,99.90
2019-04-25T04:24:46.974Z,99.90
2019-04-25T04:27:16.861Z,99.90
2019-04-25T04:29:45.301Z,99.90
2019-04-25T04:32:14.829Z,99.90
2019-04-25T04:34:45.519Z,99.90
2019-04-25T04:37:15.207Z,99.90
2019-04-25T04:39:44.200Z,99.90
2019-04-25T04:42:13.995Z,99.90
2019-04-25T04:44:43.751Z,99.90
2019-04-25T04:47:14.060Z,99.90
2019-04-25T04:49:43.936Z,99.90
2019-04-25T04:52:14.098Z,99.90
2019-04-25T04:54:43.921Z,99.90
2019-04-25T04:57:23.228Z,99.90
2019-04-25T04:59:43.837Z,99.90
2019-04-25T05:02:15.057Z,99.90
2019-04-25T05:04:58.024Z,99.90
2019-04-25T05:07:44.376Z,99.90
2019-04-25T05:10:14.506Z,99.90
2019-04-25T05:12:43.801Z,99.90
2019-04-25T05:15:15.295Z,99.90
2019-04-25T05:17:44.084Z,99.90
2019-04-25T05:20:13.405Z,99.90
2019-04-25T05:22:44.433Z,99.90
2019-04-25T05:25:15.287Z,99.90
2019-04-25T05:27:57.808Z,99.90
2019-04-25T05:30:17.099Z,99.90
2019-04-25T05:32:46.658Z,99.90
2019-04-25T05:35:16.289Z,99.90
2019-04-25T05:37:44.824Z,99.90
2019-04-25T05:40:14.742Z,99.90
2019-04-25T05:42:47.932Z,99.90
2019-04-25T05:45:18.927Z,99.90
2019-04-25T05:47:48.261Z,99.90
2019-04-25T05:50:17.804Z,99.90
2019-04-25T05:52:46.386Z,99.90
2019-04-25T05:55:17.309Z,99.90
2019-04-25T05:57:49.872Z,99.90
2019-04-25T06:00:17.504Z,99.90
2019-04-25T06:02:46.251Z,99.90
2019-04-25T06:05:14.908Z,99.90
2019-04-25T06:07:43.351Z,99.90
2019-04-25T06:10:17.177Z,99.90
2019-04-25T06:12:48.221Z,99.90
2019-04-25T06:15:18.305Z,99.90
2019-04-25T06:17:48.461Z,99.90
2019-04-25T06:20:19.271Z,99.90
2019-04-25T06:22:53.438Z,99.90
2019-04-25T06:25:29.289Z,99.90
2019-04-25T06:27:59.211Z,99.90
2019-04-25T06:30:29.627Z,99.90
2019-04-25T06:32:58.171Z,99.90
2019-04-25T06:35:27.505Z,99.90
2019-04-25T06:37:56.024Z,99.90
2019-04-25T06:40:26.271Z,99.90
2019-04-25T06:42:55.606Z,99.90
2019-04-25T06:45:44.137Z,99.90
2019-04-25T06:48:14.562Z,99.90
2019-04-25T06:50:43.787Z,99.90
2019-04-25T06:53:13.570Z,99.90
2019-04-25T06:55:43.398Z,99.90
2019-04-25T06:58:14.329Z,99.90
2019-04-25T07:00:55.791Z,99.90
2019-04-25T07:03:13.970Z,99.90
2019-04-25T07:05:43.947Z,99.90
2019-04-25T07:08:13.321Z,99.90
2019-04-25T07:10:41.901Z,99.90
2019-04-25T07:13:10.332Z,99.90
2019-04-25T07:15:38.760Z,99.90
2019-04-25T07:18:07.203Z,99.90
2019-04-25T07:20:35.637Z,99.90
2019-04-25T07:23:04.322Z,99.90
2019-04-25T07:25:35.428Z,99.90
2019-04-25T07:28:21.526Z,99.90
2019-04-25T07:30:51.951Z,99.90
2019-04-25T07:33:27.157Z,99.90
2019-04-25T07:35:56.873Z,99.90
2019-04-25T07:38:25.630Z,99.90
2019-04-25T07:40:54.099Z,99.90
2019-04-25T07:43:23.364Z,99.90
2019-04-25T07:45:53.422Z,99.90
2019-04-25T07:48:23.279Z,99.90
2019-04-25T07:50:53.619Z,99.90
2019-04-25T07:53:23.744Z,99.90
2019-04-25T07:55:54.182Z,99.90
2019-04-25T07:58:34.093Z,99.90
2019-04-25T08:00:53.950Z,99.90
2019-04-25T08:03:30.030Z,99.90
2019-04-25T08:06:00.184Z,99.90
2019-04-25T08:08:29.695Z,99.90
2019-04-25T08:11:04.833Z,99.90
2019-04-25T08:13:38.041Z,99.90
2019-04-25T08:16:08.097Z,99.90
2019-04-25T08:18:38.955Z,99.90
2019-04-25T08:21:07.545Z,99.90
2019-04-25T08:23:37.703Z,99.90
2019-04-25T08:26:06.142Z,99.90
2019-04-25T08:28:48.473Z,99.90
2019-04-25T08:31:05.055Z,99.90
2019-04-25T08:33:34.585Z,99.90
2019-04-25T08:36:08.900Z,99.90
2019-04-25T08:38:34.852Z,99.90
2019-04-25T08:41:04.183Z,99.90
2019-04-25T08:43:34.830Z,99.90
2019-04-25T08:46:04.234Z,99.90
2019-04-25T08:48:34.972Z,99.90
2019-04-25T08:51:05.945Z,99.90
2019-04-25T08:53:45.142Z,99.90
2019-04-25T08:56:15.264Z,99.90
2019-04-25T08:58:45.329Z,99.90
2019-04-25T09:01:27.325Z,99.90
2019-04-25T09:04:05.183Z,99.90
2019-04-25T09:06:35.992Z,99.90
2019-04-25T09:09:07.161Z,99.90
2019-04-25T09:11:37.991Z,99.90
2019-04-25T09:14:05.772Z,99.90
2019-04-25T09:16:35.408Z,99.90
2019-04-25T09:19:04.727Z,99.90
2019-04-25T09:21:34.661Z,99.90
2019-04-25T09:24:04.500Z,99.90
2019-04-25T09:26:34.915Z,99.90
2019-04-25T09:29:16.007Z,99.90
2019-04-25T09:31:37.018Z,99.90
2019-04-25T09:34:04.717Z,99.90
2019-04-25T09:36:33.665Z,99.90
2019-04-25T09:39:03.844Z,99.90
2019-04-25T09:41:33.596Z,99.90
2019-04-25T09:44:04.565Z,99.90
2019-04-25T09:46:35.910Z,99.90
2019-04-25T09:49:06.445Z,99.90
2019-04-25T09:51:37.521Z,99.90
2019-04-25T09:54:07.665Z,99.90
2019-04-25T09:56:38.272Z,99.90
2019-04-25T09:59:14.024Z,99.90
2019-04-25T10:01:44.886Z,99.90
2019-04-25T10:04:13.444Z,99.90
2019-04-25T10:06:44.578Z,99.90
2019-04-25T10:09:13.548Z,99.90
2019-04-25T10:11:43.969Z,99.90
2019-04-25T10:14:27.478Z,99.90
2019-04-25T10:16:56.150Z,99.90
2019-04-25T10:19:24.575Z,99.90
2019-04-25T10:21:55.033Z,99.90
2019-04-25T10:24:23.240Z,99.90
2019-04-25T10:26:53.023Z,99.90
2019-04-25T10:29:21.844Z,99.90
2019-04-25T10:31:51.111Z,99.90
2019-04-25T10:34:19.771Z,99.90
2019-04-25T10:36:48.943Z,99.90
2019-04-25T10:39:17.438Z,99.90
2019-04-25T10:41:46.832Z,99.90
2019-04-25T10:44:16.278Z,99.90
2019-04-25T10:46:46.123Z,99.90
2019-04-25T10:49:15.094Z,99.90
2019-04-25T10:51:44.758Z,99.90
2019-04-25T10:54:14.552Z,99.90
2019-04-25T10:56:45.701Z,99.90
2019-04-25T10:59:14.440Z,99.90
2019-04-25T11:01:44.669Z,99.90
2019-04-25T11:04:26.865Z,99.90
2019-04-25T11:06:55.729Z,99.90
2019-04-25T11:09:25.524Z,99.90
2019-04-25T11:11:54.289Z,99.90
2019-04-25T11:14:23.931Z,99.90
2019-04-25T11:16:54.674Z,99.90
2019-04-25T11:19:23.887Z,99.90
2019-04-25T11:21:53.824Z,99.90
2019-04-25T11:24:23.739Z,99.90
2019-04-25T11:26:55.161Z,99.90
2019-04-25T11:29:24.039Z,99.90
2019-04-25T11:31:53.392Z,99.90
2019-04-25T11:34:23.043Z,99.90
2019-04-25T11:36:51.490Z,99.90
2019-04-25T11:39:39.698Z,99.90
2019-04-25T11:42:09.885Z,99.90
2019-04-25T11:44:38.576Z,99.90
2019-04-25T11:47:08.608Z,99.90
2019-04-25T11:49:37.205Z,99.90
2019-04-25T11:52:05.985Z,99.90
2019-04-25T11:54:34.489Z,99.90
2019-04-25T11:57:03.551Z,99.90
2019-04-25T11:59:32.009Z,99.90
2019-04-25T12:02:00.526Z,99.90
2019-04-25T12:04:28.948Z,99.90
2019-04-25T12:06:57.365Z,99.90
2019-04-25T12:09:25.828Z,99.90
2019-04-25T12:11:54.537Z,99.90
2019-04-25T12:14:23.541Z,99.90
2019-04-25T12:16:54.978Z,99.90
2019-04-25T12:19:34.674Z,99.90
2019-04-25T12:21:56.227Z,99.90
2019-04-25T12:24:23.941Z,99.90
2019-04-25T12:26:54.440Z,99.90
2019-04-25T12:29:24.308Z,99.90
2019-04-25T12:31:54.591Z,99.90
2019-04-25T12:34:25.489Z,99.90
2019-04-25T12:36:55.670Z,99.90
2019-04-25T12:39:24.988Z,99.90
2019-04-25T12:41:54.481Z,99.90
2019-04-25T12:44:43.479Z,99.90
2019-04-25T12:47:14.836Z,99.90
2019-04-25T12:49:43.791Z,99.90
2019-04-25T12:52:12.499Z,99.90
2019-04-25T12:54:40.965Z,99.90
2019-04-25T12:57:09.462Z,99.90
2019-04-25T12:59:37.930Z,99.90
2019-04-25T13:02:06.433Z,99.90
2019-04-25T13:04:35.044Z,99.90
2019-04-25T13:07:04.081Z,99.90
2019-04-25T13:09:33.669Z,99.90
2019-04-25T13:12:02.100Z,99.90
2019-04-25T13:14:30.822Z,99.90
2019-04-25T13:16:59.595Z,99.90
2019-04-25T13:19:28.203Z,99.90
2019-04-25T13:21:57.080Z,99.90
2019-04-25T13:24:26.821Z,99.90
2019-04-25T13:27:03.614Z,99.90
2019-04-25T13:29:49.484Z,99.90
2019-04-25T13:32:31.550Z,99.90
2019-04-25T13:35:01.630Z,99.90
2019-04-25T13:37:30.085Z,99.90
2019-04-25T13:39:58.610Z,99.90
2019-04-25T13:42:27.301Z,99.90
2019-04-25T13:44:56.677Z,99.90
2019-04-25T13:47:28.284Z,99.90
2019-04-25T13:49:55.656Z,99.90
2019-04-25T13:52:25.058Z,99.90
2019-04-25T13:54:53.819Z,99.90
2019-04-25T13:57:23.488Z,99.90
2019-04-25T13:59:54.013Z,99.90
2019-04-25T14:02:22.787Z,99.90
2019-04-25T14:04:51.272Z,99.90
2019-04-25T14:07:20.656Z,99.90
2019-04-25T14:09:49.870Z,99.90
2019-04-25T14:12:18.352Z,99.90
2019-04-25T14:14:47.834Z,99.90
2019-04-25T14:17:17.933Z,99.90
2019-04-25T14:19:50.405Z,99.90
2019-04-25T14:22:18.967Z,99.90
2019-04-25T14:24:47.495Z,99.90
2019-04-25T14:27:16.248Z,99.90
2019-04-25T14:29:45.358Z,99.90
2019-04-25T14:32:15.575Z,99.10
2019-04-25T14:34:44.281Z,98.90
2019-04-25T14:37:13.419Z,98.40
2019-04-25T14:39:42.013Z,98.50
2019-04-25T14:42:10.844Z,98.70
2019-04-25T14:44:39.307Z,98.40
2019-04-25T14:47:07.926Z,98.00
2019-04-25T14:49:36.438Z,97.80
2019-04-25T14:52:04.861Z,97.60
2019-04-25T14:54:40.917Z,97.00
2019-04-25T14:57:11.060Z,96.70
2019-04-25T14:59:39.502Z,96.70
2019-04-25T15:02:08.089Z,96.10
2019-04-25T15:04:36.558Z,95.80
2019-04-25T15:07:04.980Z,95.70
2019-04-25T15:09:33.440Z,95.40
2019-04-25T15:12:01.868Z,95.40
2019-04-25T15:14:31.367Z,94.80
2019-04-25T15:16:59.917Z,94.70
2019-04-25T15:19:28.335Z,94.00
2019-04-25T15:21:56.799Z,93.50
2019-04-25T15:24:25.326Z,93.00
2019-04-25T15:26:53.818Z,92.80
2019-04-25T15:29:22.365Z,92.10
2019-04-25T15:31:56.054Z,89.90
2019-04-25T15:34:22.813Z,83.00
2019-04-25T15:36:55.355Z,76.40
2019-04-25T15:39:43.361Z,70.50
2019-04-25T15:42:13.473Z,64.20
2019-04-25T15:45:00.327Z,58.80
2019-04-25T15:47:30.681Z,58.50
2019-04-25T15:49:59.337Z,59.00
2019-04-25T15:52:28.989Z,59.20
2019-04-25T15:55:06.881Z,58.40
2019-04-25T15:57:28.180Z,57.30
2019-04-25T15:59:56.731Z,56.80
2019-04-25T16:02:27.585Z,55.50
2019-04-25T16:04:56.770Z,53.90
2019-04-25T16:07:27.084Z,52.40
2019-04-25T16:09:55.708Z,51.70
2019-04-25T16:12:24.258Z,49.80
2019-04-25T16:14:52.694Z,49.40
2019-04-25T16:17:21.213Z,49.50
2019-04-25T16:19:49.661Z,48.80
2019-04-25T16:22:18.164Z,49.30
2019-04-25T16:24:46.681Z,49.20
2019-04-25T16:27:15.616Z,48.70
2019-04-25T16:29:44.055Z,48.90
2019-04-25T16:32:20.321Z,48.70
2019-04-25T16:34:44.317Z,48.80
2019-04-25T16:37:13.044Z,48.60
2019-04-25T16:39:43.124Z,48.00
2019-04-25T16:42:11.631Z,47.30
2019-04-25T16:44:40.160Z,47.20
2019-04-25T16:47:10.365Z,47.20
2019-04-25T16:49:39.822Z,48.20
2019-04-25T16:52:10.244Z,49.50
2019-04-25T16:54:38.773Z,50.80
2019-04-25T16:57:07.619Z,52.00
2019-04-25T16:59:36.161Z,52.60
2019-04-25T17:02:04.624Z,54.00
2019-04-25T17:04:33.353Z,54.70
2019-04-25T17:07:01.786Z,54.30
2019-04-25T17:09:30.564Z,53.90
2019-04-25T17:11:59.341Z,53.20
2019-04-25T17:14:39.493Z,53.10
2019-04-25T17:17:25.881Z,53.20
2019-04-25T17:19:56.342Z,53.20
2019-04-25T17:22:25.996Z,53.90
2019-04-25T17:24:56.565Z,54.10
2019-04-25T17:27:26.704Z,54.40
2019-04-25T17:29:58.075Z,54.10
2019-04-25T17:32:31.720Z,53.90
2019-04-25T17:35:19.547Z,53.60
2019-04-25T17:38:01.682Z,53.70
2019-04-25T17:40:32.817Z,53.80
2019-04-25T17:43:10.829Z,54.00
2019-04-25T17:45:33.524Z,54.80
2019-04-25T17:48:01.963Z,55.40
2019-04-25T17:50:30.390Z,56.30
2019-04-25T17:52:58.829Z,56.90
2019-04-25T17:55:27.262Z,57.60
2019-04-25T17:57:55.696Z,58.90
2019-04-25T18:00:25.877Z,60.10
2019-04-25T18:02:58.884Z,61.40
2019-04-25T18:05:24.458Z,62.40
2019-04-25T18:07:52.947Z,62.70
2019-04-25T18:10:21.381Z,63.70
2019-04-25T18:12:49.811Z,64.40
2019-04-25T18:15:19.907Z,65.70
2019-04-25T18:17:48.325Z,66.60
2019-04-25T18:20:18.388Z,67.50
2019-04-25T18:22:48.466Z,68.30
2019-04-25T18:25:18.531Z,69.30
2019-04-25T18:27:51.414Z,70.40
2019-04-25T18:30:19.989Z,71.90
2019-04-25T18:33:10.342Z,71.90
2019-04-25T18:35:39.122Z,73.00
2019-04-25T18:38:17.558Z,73.70
2019-04-25T18:40:47.655Z,74.90
2019-04-25T18:43:17.705Z,75.70
2019-04-25T18:45:50.430Z,76.90
2019-04-25T18:48:18.889Z,78.10
2019-04-25T18:50:47.615Z,78.70
2019-04-25T18:53:23.736Z,80.20
2019-04-25T18:55:56.825Z,79.80
2019-04-25T18:58:43.923Z,81.20
2019-04-25T19:01:30.082Z,82.20
2019-04-25T19:04:00.178Z,83.50
2019-04-25T19:06:28.669Z,84.50
2019-04-25T19:08:57.101Z,85.70
2019-04-25T19:11:25.847Z,86.70
2019-04-25T19:13:54.575Z,88.30
2019-04-25T19:16:23.001Z,89.30
2019-04-25T19:18:51.634Z,90.20
2019-04-25T19:21:20.112Z,90.70
2019-04-25T19:23:48.579Z,91.50
2019-04-25T19:26:17.034Z,92.10
2019-04-25T19:28:45.470Z,92.90
2019-04-25T19:31:13.893Z,93.60
2019-04-25T19:33:43.263Z,94.20
2019-04-25T19:36:11.748Z,94.70
2019-04-25T19:38:40.659Z,95.40
2019-04-25T19:41:14.247Z,96.20
2019-04-25T19:43:56.010Z,96.60
2019-04-25T19:46:38.517Z,96.40
2019-04-25T19:49:07.818Z,97.80
2019-04-25T19:51:36.624Z,98.80
2019-04-25T19:54:06.248Z,99.30
2019-04-25T19:56:35.146Z,99.90
2019-04-25T19:59:03.837Z,99.90
2019-04-25T20:01:32.287Z,99.90
2019-04-25T20:04:05.053Z,99.90
2019-04-25T20:06:41.069Z,99.90
2019-04-25T20:09:14.333Z,99.90
2019-04-25T20:11:45.256Z,99.90
2019-04-25T20:14:13.753Z,99.90
2019-04-25T20:16:44.903Z,99.90
2019-04-25T20:19:13.954Z,99.90
2019-04-25T20:21:44.395Z,99.90
2019-04-25T20:24:12.961Z,99.90
2019-04-25T20:26:41.396Z,99.90
2019-04-25T20:29:09.905Z,99.90
2019-04-25T20:31:38.338Z,99.90
2019-04-25T20:34:06.776Z,99.90
2019-04-25T20:36:35.313Z,99.90
2019-04-25T20:39:05.288Z,99.90
2019-04-25T20:41:33.723Z,99.90
2019-04-25T20:44:02.287Z,99.90
2019-04-25T20:46:30.723Z,99.90
2019-04-25T20:48:59.139Z,99.90
2019-04-25T20:51:27.598Z,99.90
2019-04-25T20:53:57.039Z,99.90
2019-04-25T20:56:25.596Z,99.90
2019-04-25T20:58:54.036Z,99.90
2019-04-25T21:01:22.454Z,99.90
2019-04-25T21:03:51.982Z,99.90
2019-04-25T21:06:25.197Z,99.90
2019-04-25T21:08:53.618Z,99.90
2019-04-25T21:11:22.037Z,99.90
2019-04-25T21:13:52.951Z,99.90
2019-04-25T21:16:40.631Z,99.90
2019-04-25T21:19:13.381Z,99.90
2019-04-25T21:21:42.053Z,99.90
2019-04-25T21:24:10.510Z,99.90
2019-04-25T21:26:38.969Z,99.90
2019-04-25T21:29:07.469Z,99.90
2019-04-25T21:31:35.970Z,99.90
2019-04-25T21:34:04.493Z,99.90
2019-04-25T21:36:33.196Z,99.90
2019-04-25T21:39:01.947Z,99.90
2019-04-25T21:41:38.110Z,99.90
2019-04-25T21:44:07.473Z,99.90
2019-04-25T21:46:36.143Z,99.90
2019-04-25T21:49:04.944Z,99.90
2019-04-25T21:51:33.640Z,99.90
2019-04-25T21:54:02.527Z,99.90
2019-04-25T21:56:32.132Z,99.90
2019-04-25T21:59:00.558Z,99.90
2019-04-25T22:01:31.364Z,99.90
2019-04-25T22:04:00.717Z,99.90
2019-04-25T22:06:29.419Z,99.90
2019-04-25T22:08:58.734Z,99.90
2019-04-25T22:11:27.530Z,99.90
2019-04-25T22:13:56.640Z,99.90
2019-04-25T22:16:26.025Z,99.90
2019-04-25T22:18:55.501Z,99.90
2019-04-25T22:21:37.231Z,99.90
2019-04-25T22:24:06.257Z,99.90
2019-04-25T22:26:25.209Z,99.90
2019-04-25T22:28:54.036Z,99.90
2019-04-25T22:31:27.000Z,99.90
2019-04-25T22:34:00.028Z,99.90
2019-04-25T22:36:29.089Z,99.90
2019-04-25T22:39:11.052Z,99.90
2019-04-25T22:41:42.052Z,99.90
2019-04-25T22:44:12.203Z,99.90
2019-04-25T22:46:41.080Z,99.90
2019-04-25T22:49:09.589Z,99.90
2019-04-25T22:51:38.090Z,99.90
2019-04-25T22:54:07.373Z,99.90
2019-04-25T22:56:35.860Z,99.90
2019-04-25T22:59:04.921Z,99.90
2019-04-25T23:01:40.961Z,99.90
2019-04-25T23:04:13.661Z,99.90
2019-04-25T23:06:42.365Z,99.90
2019-04-25T23:09:10.821Z,99.90
2019-04-25T23:11:39.481Z,99.90
2019-04-25T23:14:08.823Z,99.90
2019-04-25T23:16:37.849Z,99.90
2019-04-25T23:19:07.274Z,99.90
2019-04-25T23:21:35.987Z,99.90
2019-04-25T23:24:05.480Z,99.90
2019-04-25T23:26:38.953Z,99.90
2019-04-25T23:29:10.157Z,99.90
2019-04-25T23:31:40.309Z,99.90
2019-04-25T23:34:09.009Z,99.90
2019-04-25T23:36:37.461Z,99.90
2019-04-25T23:39:09.382Z,99.90
2019-04-25T23:41:38.205Z,99.90
2019-04-25T23:44:07.911Z,99.90
2019-04-25T23:46:36.749Z,99.90
2019-04-25T23:49:06.461Z,99.90
2019-04-25T23:51:35.902Z,99.90
2019-04-25T23:54:04.767Z,99.90
2019-04-25T23:56:33.192Z,99.90
2019-04-25T23:59:01.818Z,99.90
